• Join FlightAware (Why Join?)
  • Login
  • US Flag 
03:47PM EDT


 

Airport Tracker/Info


-or-


 

Live Flight TrackerFlight Track Log ✈ N31007 ✈ 25-Apr-2014 ✈ KHVS - KOGB

Flight Track Log - Related Links

Times and Time Zones

All times are in EDT time to prevent confusion due to time zone crossing. See the N31007 flight status page for this flight to view local times or setup timezone preferences in your user account.

Time Position Orientation Groundspeed Altitude Reporting Facility
EDT Latitude Longitude Course Direction KTS MPH feet Rate Location/Type
11:17AM 34.2425 -80.2375 215° Southwest 181 208 4,100  Level Jacksonville Center
11:18AM 34.2117 -80.2636 215° Southwest 158 182 4,100  Level Jacksonville Center
11:19AM 34.1958 -80.2992 242° Southwest 138 159 4,100  Level Jacksonville Center
11:20AM 34.1800 -80.3447 247° West 145 167 4,100  Level Jacksonville Center
11:21AM 34.1642 -80.3856 245° Southwest 145 167 4,100  Level Jacksonville Center
11:22AM 34.1503 -80.4311 250° West 145 167 4,100  Level Jacksonville Center
11:23AM 34.1303 -80.4717 239° Southwest 145 167 4,100 -60 Level Jacksonville Center
11:24AM 34.1058 -80.5025 226° Southwest 138 159 4,000  Descending Jacksonville Center
11:25AM 34.0686 -80.5186 200° South 133 153 4,100  Climbing Jacksonville Center
11:26AM 34.0333 -80.5344 200° South 138 159 4,100  Level Jacksonville Center
11:27AM 33.9983 -80.5581 209° Southwest 138 159 4,100 -60 Level Jacksonville Center
11:28AM 33.9653 -80.5739 202° Southwest 138 159 4,000  Descending Jacksonville Center
11:29AM 33.9258 -80.5850 193° South 138 159 4,100  Climbing Jacksonville Center
11:30AM 33.8928 -80.5983 199° South 138 159 4,000  Descending Jacksonville Center
11:31AM 33.8575 -80.6142 200° South 138 159 4,100  Climbing Jacksonville Center
11:32AM 33.8222 -80.6278 198° South 138 159 4,100  Level Jacksonville Center
11:33AM 33.7831 -80.6411 196° South 138 159 4,100  Level Jacksonville Center
11:34AM 33.7478 -80.6547 198° South 138 159 4,100 -180 Level Jacksonville Center
11:35AM 33.7103 -80.6681 196° South 144 166 3,800 -360 Descending Jacksonville Center
11:36AM 33.6711 -80.6889 204° Southwest 149 171 3,400 -420 Descending Jacksonville Center
11:37AM 33.6339 -80.7097 205° Southwest 149 171 3,000 -420 Descending Jacksonville Center
11:38AM 33.5964 -80.7083 178° South 144 166 2,600 480 Descending Jacksonville Center
11:39AM 33.5508 -80.7294 201° Southwest 144 166 4,000 1,380 Climbing Jacksonville Center